createdAt,value
2023-02-22T00:00:21.326Z,954.03
2023-02-22T00:01:21.289Z,954.03
2023-02-22T00:02:21.292Z,954.05
2023-02-22T00:03:21.267Z,954.04
2023-02-22T00:04:21.414Z,954.03
2023-02-22T00:05:21.210Z,954.01
2023-02-22T00:06:21.174Z,954.03
2023-02-22T00:07:21.163Z,954.04
2023-02-22T00:08:21.143Z,954.05
2023-02-22T00:09:21.133Z,954.02
2023-02-22T00:10:21.122Z,954.02
2023-02-22T00:11:21.102Z,954.02
2023-02-22T00:12:21.071Z,954.00
2023-02-22T00:13:21.061Z,953.95
2023-02-22T00:14:21.057Z,953.99
2023-02-22T00:15:21.025Z,953.98
2023-02-22T00:16:21.040Z,953.96
2023-02-22T00:17:20.983Z,953.95
2023-02-22T00:18:20.963Z,953.95
2023-02-22T00:19:20.936Z,953.93
2023-02-22T00:20:20.924Z,953.90
2023-02-22T00:21:20.915Z,953.90
2023-02-22T00:22:20.879Z,953.92
2023-02-22T00:23:20.876Z,953.89
2023-02-22T00:24:20.856Z,953.92
2023-02-22T00:25:20.856Z,953.90
2023-02-22T00:26:20.837Z,953.92
2023-02-22T00:27:20.839Z,953.95
2023-02-22T00:28:20.823Z,953.93
2023-02-22T00:29:20.816Z,953.96
2023-02-22T00:30:20.826Z,953.93
2023-02-22T00:31:21.064Z,953.96
2023-02-22T00:32:20.867Z,953.97
2023-02-22T00:33:20.776Z,954.03
2023-02-22T00:34:20.775Z,953.99
2023-02-22T00:35:20.787Z,954.03
2023-02-22T00:36:20.747Z,954.02
2023-02-22T00:37:20.772Z,953.99
2023-02-22T00:38:20.747Z,953.99
2023-02-22T00:39:20.753Z,953.95
2023-02-22T00:40:20.734Z,953.98
2023-02-22T00:41:20.747Z,954.01
2023-02-22T00:42:20.716Z,953.97
2023-02-22T00:43:20.718Z,953.99
2023-02-22T00:44:20.791Z,953.97
2023-02-22T00:45:20.719Z,953.99
2023-02-22T00:46:20.697Z,954.02
2023-02-22T00:47:20.695Z,954.00
2023-02-22T00:48:20.675Z,953.95
2023-02-22T00:49:20.679Z,953.96
2023-02-22T00:50:20.669Z,953.95
2023-02-22T00:51:20.658Z,953.99
2023-02-22T00:52:20.662Z,953.97
2023-02-22T00:53:20.660Z,953.94
2023-02-22T00:54:20.638Z,953.95
2023-02-22T00:55:20.651Z,953.96
2023-02-22T00:56:20.654Z,953.94
2023-02-22T00:57:20.641Z,953.93
2023-02-22T00:58:20.638Z,953.94
2023-02-22T00:59:20.632Z,953.93
2023-02-22T01:00:20.641Z,953.94
2023-02-22T01:01:20.681Z,953.97
2023-02-22T01:02:20.638Z,953.96
2023-02-22T01:03:20.631Z,953.97
2023-02-22T01:04:20.620Z,953.94
2023-02-22T01:05:20.642Z,953.92
2023-02-22T01:06:20.609Z,953.93
2023-02-22T01:07:20.618Z,953.93
2023-02-22T01:08:20.610Z,953.96
2023-02-22T01:09:20.621Z,953.93
2023-02-22T01:10:20.631Z,953.93
2023-02-22T01:11:20.626Z,953.90
2023-02-22T01:12:20.612Z,953.91
2023-02-22T01:13:20.622Z,953.89
2023-02-22T01:14:20.611Z,953.86
2023-02-22T01:15:20.624Z,953.87
2023-02-22T01:16:20.645Z,953.88
2023-02-22T01:17:20.628Z,953.89
2023-02-22T01:18:20.614Z,953.90
2023-02-22T01:19:20.623Z,953.89
2023-02-22T01:20:20.640Z,953.86
2023-02-22T01:21:20.624Z,953.87
2023-02-22T01:22:20.643Z,953.86
2023-02-22T01:23:20.642Z,953.85
2023-02-22T01:24:20.644Z,953.88
2023-02-22T01:25:20.656Z,953.88
2023-02-22T01:26:20.654Z,953.85
2023-02-22T01:27:20.665Z,953.86
2023-02-22T01:28:20.664Z,953.85
2023-02-22T01:29:20.684Z,953.84
2023-02-22T01:30:20.755Z,953.81
2023-02-22T01:31:20.873Z,953.82
2023-02-22T01:32:20.730Z,953.81
2023-02-22T01:33:20.716Z,953.76
2023-02-22T01:34:20.754Z,953.76
2023-02-22T01:35:20.756Z,953.75
2023-02-22T01:36:20.769Z,953.72
2023-02-22T01:37:20.787Z,953.74
2023-02-22T01:38:20.808Z,953.74
2023-02-22T01:39:20.803Z,953.74
2023-02-22T01:40:20.846Z,953.79
2023-02-22T01:41:20.844Z,953.76
2023-02-22T01:42:20.852Z,953.70
2023-02-22T01:43:20.873Z,953.69
2023-02-22T01:44:20.874Z,953.71
2023-02-22T01:45:20.892Z,953.68
2023-02-22T01:46:20.940Z,953.65
2023-02-22T01:47:20.902Z,953.68
2023-02-22T01:48:20.906Z,953.64
2023-02-22T01:49:20.903Z,953.68
2023-02-22T01:50:20.924Z,953.65
2023-02-22T01:51:20.951Z,953.62
2023-02-22T01:52:20.924Z,953.66
2023-02-22T01:53:20.922Z,953.62
2023-02-22T01:54:20.936Z,953.62
2023-02-22T01:55:20.954Z,953.58
2023-02-22T01:56:20.956Z,953.57
2023-02-22T01:57:20.944Z,953.59
2023-02-22T01:58:20.979Z,953.59
2023-02-22T01:59:20.973Z,953.56
2023-02-22T02:00:21.009Z,953.61
2023-02-22T02:01:20.999Z,953.62
2023-02-22T02:02:21.004Z,953.60
2023-02-22T02:03:21.020Z,953.61
2023-02-22T02:04:21.034Z,953.59
2023-02-22T02:05:21.067Z,953.58
2023-02-22T02:06:21.047Z,953.55
2023-02-22T02:07:21.035Z,953.60
2023-02-22T02:08:21.041Z,953.59
2023-02-22T02:09:21.043Z,953.56
2023-02-22T02:10:21.055Z,953.60
2023-02-22T02:11:21.054Z,953.59
2023-02-22T02:12:21.065Z,953.58
2023-02-22T02:13:21.077Z,953.61
2023-02-22T02:14:21.080Z,953.56
2023-02-22T02:15:21.105Z,953.57
2023-02-22T02:16:21.119Z,953.58
2023-02-22T02:17:21.124Z,953.54
2023-02-22T02:18:21.136Z,953.51
2023-02-22T02:19:21.147Z,953.47
2023-02-22T02:20:21.173Z,953.48
2023-02-22T02:21:21.159Z,953.49
2023-02-22T02:22:21.184Z,953.50
2023-02-22T02:23:21.201Z,953.48
2023-02-22T02:24:21.231Z,953.45
2023-02-22T02:25:21.255Z,953.46
2023-02-22T02:26:21.261Z,953.49
2023-02-22T02:27:21.270Z,953.47
2023-02-22T02:28:21.290Z,953.49
2023-02-22T02:29:21.292Z,953.47
2023-02-22T02:30:21.327Z,953.43
2023-02-22T02:31:21.351Z,953.42
2023-02-22T02:32:21.463Z,953.45
2023-02-22T02:33:21.342Z,953.42
2023-02-22T02:34:21.362Z,953.42
2023-02-22T02:35:21.372Z,953.43
2023-02-22T02:36:21.383Z,953.47
2023-02-22T02:37:21.393Z,953.41
2023-02-22T02:38:21.435Z,953.43
2023-02-22T02:39:21.408Z,953.47
2023-02-22T02:40:21.537Z,953.43
2023-02-22T02:41:21.422Z,953.39
2023-02-22T02:42:21.444Z,953.44
2023-02-22T02:43:21.459Z,953.42
2023-02-22T02:44:21.455Z,953.39
2023-02-22T02:45:21.464Z,953.44
2023-02-22T02:46:21.464Z,953.42
2023-02-22T02:47:21.496Z,953.41
2023-02-22T02:48:21.489Z,953.45
2023-02-22T02:49:21.473Z,953.43
2023-02-22T02:50:21.514Z,953.39
2023-02-22T02:51:21.504Z,953.38
2023-02-22T02:52:21.507Z,953.37
2023-02-22T02:53:21.517Z,953.41
2023-02-22T02:54:21.517Z,953.41
2023-02-22T02:55:21.531Z,953.39
2023-02-22T02:56:21.529Z,953.38
2023-02-22T02:57:21.537Z,953.36
2023-02-22T02:58:21.550Z,953.38
2023-02-22T02:59:21.548Z,953.40
2023-02-22T03:00:21.587Z,953.38
2023-02-22T03:01:21.584Z,953.38
2023-02-22T03:02:21.596Z,953.45
2023-02-22T03:03:21.622Z,953.42
2023-02-22T03:04:21.638Z,953.44
2023-02-22T03:05:21.662Z,953.39
2023-02-22T03:06:21.675Z,953.45
2023-02-22T03:07:21.709Z,953.40
2023-02-22T03:08:21.693Z,953.36
2023-02-22T03:09:21.699Z,953.37
2023-02-22T03:10:21.720Z,953.35
2023-02-22T03:11:21.728Z,953.37
2023-02-22T03:12:21.739Z,953.37
2023-02-22T03:13:21.751Z,953.35
2023-02-22T03:14:21.754Z,953.36
2023-02-22T03:15:21.790Z,953.31
2023-02-22T03:16:21.814Z,953.34
2023-02-22T03:17:21.781Z,953.34
2023-02-22T03:18:21.811Z,953.30
2023-02-22T03:19:21.834Z,953.26
2023-02-22T03:20:21.849Z,953.31
2023-02-22T03:21:21.851Z,953.29
2023-02-22T03:22:21.870Z,953.28
2023-02-22T03:23:21.897Z,953.26
2023-02-22T03:24:21.912Z,953.32
2023-02-22T03:25:21.934Z,953.27
2023-02-22T03:26:21.962Z,953.33
2023-02-22T03:27:21.947Z,953.27
2023-02-22T03:28:21.983Z,953.22
2023-02-22T03:29:21.983Z,953.25
2023-02-22T03:30:22.072Z,953.23
2023-02-22T03:31:22.137Z,953.21
2023-02-22T03:32:22.066Z,953.23
2023-02-22T03:33:22.059Z,953.17
2023-02-22T03:34:22.065Z,953.21
2023-02-22T03:35:22.085Z,953.22
2023-02-22T03:36:22.098Z,953.22
2023-02-22T03:37:22.102Z,953.19
2023-02-22T03:38:22.136Z,953.18
2023-02-22T03:39:22.147Z,953.22
2023-02-22T03:40:22.180Z,953.20
2023-02-22T03:41:22.169Z,953.22
2023-02-22T03:42:22.208Z,953.20
2023-02-22T03:43:22.218Z,953.28
2023-02-22T03:44:22.226Z,953.19
2023-02-22T03:45:22.245Z,953.21
2023-02-22T03:46:22.264Z,953.27
2023-02-22T03:47:22.263Z,953.26
2023-02-22T03:48:22.296Z,953.24
2023-02-22T03:49:22.287Z,953.26
2023-02-22T03:50:22.317Z,953.23
2023-02-22T03:51:22.688Z,953.29
2023-02-22T03:52:22.350Z,953.25
2023-02-22T03:53:22.380Z,953.27
2023-02-22T03:54:22.373Z,953.27
2023-02-22T03:55:22.400Z,953.28
2023-02-22T03:56:22.419Z,953.27
2023-02-22T03:57:22.441Z,953.27
2023-02-22T03:58:22.461Z,953.28
2023-02-22T03:59:22.472Z,953.24
2023-02-22T04:00:22.509Z,953.27
2023-02-22T04:01:22.500Z,953.30
2023-02-22T04:02:22.520Z,953.32
2023-02-22T04:03:22.582Z,953.35
2023-02-22T04:04:22.564Z,953.31
2023-02-22T04:05:22.554Z,953.33
2023-02-22T04:06:22.587Z,953.38
2023-02-22T04:07:22.571Z,953.38
2023-02-22T04:08:22.580Z,953.35
2023-02-22T04:09:22.595Z,953.38
2023-02-22T04:10:22.665Z,953.37
2023-02-22T04:11:22.623Z,953.35
2023-02-22T04:12:22.661Z,953.29
2023-02-22T04:13:22.677Z,953.29
2023-02-22T04:14:23.852Z,953.27
2023-02-22T04:15:22.742Z,953.28
2023-02-22T04:16:22.743Z,953.27
2023-02-22T04:17:22.742Z,953.26
2023-02-22T04:18:22.780Z,953.24
2023-02-22T04:19:22.792Z,953.26
2023-02-22T04:20:22.823Z,953.24
2023-02-22T04:21:22.824Z,953.21
2023-02-22T04:22:22.854Z,953.24
2023-02-22T04:23:22.854Z,953.25
2023-02-22T04:24:22.884Z,953.23
2023-02-22T04:25:22.903Z,953.21
2023-02-22T04:26:22.912Z,953.20
2023-02-22T04:27:22.958Z,953.24
2023-02-22T04:28:22.978Z,953.18
2023-02-22T04:29:22.966Z,953.20
2023-02-22T04:30:23.007Z,953.29
2023-02-22T04:31:23.027Z,953.27
2023-02-22T04:32:23.063Z,953.24
2023-02-22T04:33:23.007Z,953.20
2023-02-22T04:34:23.017Z,953.24
2023-02-22T04:35:23.037Z,953.24
2023-02-22T04:36:23.047Z,953.24
2023-02-22T04:37:23.050Z,953.24
2023-02-22T04:38:23.076Z,953.23
2023-02-22T04:39:23.196Z,953.25
2023-02-22T04:40:23.102Z,953.20
2023-02-22T04:41:25.323Z,953.20
2023-02-22T04:42:23.119Z,953.20
2023-02-22T04:43:23.131Z,953.17
2023-02-22T04:44:23.177Z,953.18
2023-02-22T04:45:23.167Z,953.19
2023-02-22T04:46:23.210Z,953.18
2023-02-22T04:47:23.167Z,953.21
2023-02-22T04:48:23.180Z,953.15
2023-02-22T04:49:23.182Z,953.15
2023-02-22T04:50:23.221Z,953.14
2023-02-22T04:51:23.216Z,953.11
2023-02-22T04:52:23.238Z,953.10
2023-02-22T04:53:23.228Z,953.10
2023-02-22T04:54:23.248Z,953.08
2023-02-22T04:55:23.277Z,953.08
2023-02-22T04:56:23.278Z,953.09
2023-02-22T04:57:23.278Z,953.07
2023-02-22T04:58:23.300Z,953.07
2023-02-22T04:59:23.311Z,953.06
2023-02-22T05:00:23.318Z,953.05
2023-02-22T05:01:23.337Z,953.03
2023-02-22T05:02:23.376Z,953.06
2023-02-22T05:03:23.355Z,953.06
2023-02-22T05:04:23.399Z,953.08
2023-02-22T05:05:23.393Z,953.05
2023-02-22T05:06:23.399Z,953.08
2023-02-22T05:07:23.403Z,953.04
2023-02-22T05:08:23.440Z,953.03
2023-02-22T05:09:23.434Z,953.03
2023-02-22T05:10:23.449Z,953.03
2023-02-22T05:11:23.460Z,953.02
2023-02-22T05:12:23.476Z,953.01
2023-02-22T05:13:23.458Z,953.03
2023-02-22T05:14:23.470Z,953.04
2023-02-22T05:15:23.501Z,953.01
2023-02-22T05:16:23.523Z,953.06
2023-02-22T05:17:23.493Z,953.01
2023-02-22T05:18:23.508Z,952.99
2023-02-22T05:19:23.502Z,953.04
2023-02-22T05:20:23.531Z,953.02
2023-02-22T05:21:23.511Z,953.02
2023-02-22T05:22:23.534Z,953.04
2023-02-22T05:23:23.558Z,952.99
2023-02-22T05:24:23.580Z,952.98
2023-02-22T05:25:23.581Z,952.99
2023-02-22T05:26:23.583Z,952.96
2023-02-22T05:27:23.583Z,952.96
2023-02-22T05:28:23.601Z,952.95
2023-02-22T05:29:23.627Z,952.97
2023-02-22T05:30:23.704Z,952.92
2023-02-22T05:31:23.728Z,952.94
2023-02-22T05:32:23.689Z,952.94
2023-02-22T05:33:23.663Z,952.95
2023-02-22T05:34:23.671Z,952.94
2023-02-22T05:35:23.717Z,952.91
2023-02-22T05:36:23.693Z,952.89
2023-02-22T05:37:23.695Z,952.91
2023-02-22T05:38:23.716Z,952.94
2023-02-22T05:39:23.716Z,952.90
2023-02-22T05:40:23.737Z,952.93
2023-02-22T05:41:23.725Z,952.92
2023-02-22T05:42:23.746Z,952.92
2023-02-22T05:43:23.757Z,952.91
2023-02-22T05:44:23.747Z,952.91
2023-02-22T05:45:23.797Z,952.89
2023-02-22T05:46:23.840Z,952.94
2023-02-22T05:47:23.798Z,952.93
2023-02-22T05:48:23.788Z,952.93
2023-02-22T05:49:23.799Z,952.90
2023-02-22T05:50:23.819Z,952.96
2023-02-22T05:51:23.937Z,952.90
2023-02-22T05:52:23.819Z,952.94
2023-02-22T05:53:23.849Z,952.91
2023-02-22T05:54:23.850Z,952.93
2023-02-22T05:55:23.882Z,952.91
2023-02-22T05:56:23.847Z,952.92
2023-02-22T05:57:23.849Z,952.95
2023-02-22T05:58:23.833Z,952.94
2023-02-22T05:59:23.848Z,952.92
2023-02-22T06:00:23.866Z,952.94
2023-02-22T06:01:23.849Z,952.93
2023-02-22T06:02:23.849Z,952.98
2023-02-22T06:03:23.866Z,952.96
2023-02-22T06:04:23.858Z,952.99
2023-02-22T06:05:23.910Z,952.99
2023-02-22T06:06:23.866Z,952.98
2023-02-22T06:07:23.899Z,952.91
2023-02-22T06:08:23.888Z,952.98
2023-02-22T06:09:23.889Z,952.97
2023-02-22T06:10:23.898Z,952.96
2023-02-22T06:11:23.897Z,952.96
2023-02-22T06:12:23.887Z,953.01
2023-02-22T06:13:23.899Z,953.00
2023-02-22T06:14:23.888Z,952.96
2023-02-22T06:15:23.915Z,952.96
2023-02-22T06:16:24.075Z,952.92
2023-02-22T06:17:23.913Z,952.96
2023-02-22T06:18:23.916Z,952.93
2023-02-22T06:19:23.923Z,952.93
2023-02-22T06:20:23.929Z,952.95
2023-02-22T06:21:23.929Z,952.94
2023-02-22T06:22:23.929Z,952.95
2023-02-22T06:23:23.950Z,952.96
2023-02-22T06:24:23.958Z,952.95
2023-02-22T06:25:23.984Z,952.99
2023-02-22T06:26:23.956Z,952.99
2023-02-22T06:27:23.940Z,952.97
2023-02-22T06:28:23.962Z,952.96
2023-02-22T06:29:23.960Z,952.96
2023-02-22T06:30:24.063Z,953.00
2023-02-22T06:31:23.989Z,952.95
2023-02-22T06:32:24.014Z,952.97
2023-02-22T06:33:23.961Z,952.94
2023-02-22T06:34:23.970Z,952.97
2023-02-22T06:35:23.990Z,952.93
2023-02-22T06:36:23.960Z,952.95
2023-02-22T06:37:23.970Z,952.95
2023-02-22T06:38:23.973Z,952.99
2023-02-22T06:39:23.979Z,952.92
2023-02-22T06:40:23.990Z,952.96
2023-02-22T06:41:23.985Z,952.97
2023-02-22T06:42:23.993Z,952.98
2023-02-22T06:43:23.971Z,952.95
2023-02-22T06:44:23.977Z,952.98
2023-02-22T06:45:24.029Z,952.98
2023-02-22T06:46:23.972Z,952.98
2023-02-22T06:47:23.991Z,952.96
2023-02-22T06:48:23.985Z,952.98
2023-02-22T06:49:23.991Z,953.02
2023-02-22T06:50:24.005Z,952.97
2023-02-22T06:51:24.015Z,952.99
2023-02-22T06:52:23.974Z,952.97
2023-02-22T06:53:23.984Z,952.98
2023-02-22T06:54:23.973Z,952.98
2023-02-22T06:55:23.992Z,953.01
2023-02-22T06:56:23.972Z,953.01
2023-02-22T06:57:23.994Z,953.04
2023-02-22T06:58:24.035Z,953.02
2023-02-22T06:59:24.000Z,953.05
2023-02-22T07:00:23.992Z,953.03
2023-02-22T07:01:24.045Z,952.99
2023-02-22T07:02:23.997Z,953.00
2023-02-22T07:03:24.032Z,953.05
2023-02-22T07:04:24.005Z,953.05
2023-02-22T07:05:24.017Z,953.02
2023-02-22T07:06:23.997Z,953.06
2023-02-22T07:07:23.998Z,953.06
2023-02-22T07:08:23.990Z,953.07
2023-02-22T07:09:23.997Z,953.08
2023-02-22T07:10:24.000Z,953.05
2023-02-22T07:11:23.992Z,953.08
2023-02-22T07:12:23.990Z,953.10
2023-02-22T07:13:23.971Z,953.08
2023-02-22T07:14:23.975Z,953.08
2023-02-22T07:15:23.987Z,953.05
2023-02-22T07:16:24.033Z,953.11
2023-02-22T07:17:23.981Z,953.06
2023-02-22T07:18:23.985Z,953.04
2023-02-22T07:19:24.002Z,953.04
2023-02-22T07:20:24.006Z,953.05
2023-02-22T07:21:24.002Z,952.99
2023-02-22T07:22:23.991Z,953.05
2023-02-22T07:23:23.993Z,953.03
2023-02-22T07:24:24.008Z,953.05
2023-02-22T07:25:24.022Z,953.02
2023-02-22T07:26:23.994Z,953.04
2023-02-22T07:27:23.988Z,953.02
2023-02-22T07:28:23.984Z,953.04
2023-02-22T07:29:23.986Z,953.06
2023-02-22T07:30:23.975Z,953.02
2023-02-22T07:31:23.956Z,953.03
2023-02-22T07:32:23.952Z,953.00
2023-02-22T07:33:23.926Z,952.99
2023-02-22T07:34:23.935Z,952.99
2023-02-22T07:35:23.927Z,952.97
2023-02-22T07:36:23.900Z,952.97
2023-02-22T07:37:23.900Z,953.02
2023-02-22T07:38:23.877Z,953.04
2023-02-22T07:39:23.872Z,952.95
2023-02-22T07:40:23.876Z,952.95
2023-02-22T07:41:23.852Z,952.96
2023-02-22T07:42:23.828Z,952.95
2023-02-22T07:43:23.828Z,952.88
2023-02-22T07:44:23.833Z,952.89
2023-02-22T07:45:23.874Z,952.89
2023-02-22T07:46:23.808Z,952.96
2023-02-22T07:47:23.802Z,952.90
2023-02-22T07:48:23.780Z,952.91
2023-02-22T07:49:23.781Z,952.91
2023-02-22T07:50:23.779Z,952.91
2023-02-22T07:51:23.749Z,952.95
2023-02-22T07:52:23.727Z,952.93
2023-02-22T07:53:23.716Z,952.90
2023-02-22T07:54:23.700Z,952.94
2023-02-22T07:55:23.703Z,952.88
2023-02-22T07:56:23.680Z,952.84
2023-02-22T07:57:23.661Z,952.88
2023-02-22T07:58:26.359Z,952.86
2023-02-22T07:59:23.617Z,952.82
2023-02-22T08:00:23.605Z,952.85
2023-02-22T08:01:23.561Z,952.84
2023-02-22T08:02:23.549Z,952.87
2023-02-22T08:03:23.608Z,952.78
2023-02-22T08:04:23.471Z,952.76
2023-02-22T08:05:23.452Z,952.76
2023-02-22T08:06:23.403Z,952.80
2023-02-22T08:07:23.377Z,952.78
2023-02-22T08:08:23.357Z,952.81
2023-02-22T08:09:23.303Z,952.79
2023-02-22T08:10:23.288Z,952.79
2023-02-22T08:11:23.225Z,952.80
2023-02-22T08:12:23.184Z,952.80
2023-02-22T08:13:23.165Z,952.80
2023-02-22T08:14:23.126Z,952.70
2023-02-22T08:15:23.085Z,952.72
2023-02-22T08:16:23.053Z,952.67
2023-02-22T08:17:23.004Z,952.69
2023-02-22T08:18:22.970Z,952.72
2023-02-22T08:19:22.949Z,952.72
2023-02-22T08:20:22.917Z,952.72
2023-02-22T08:21:22.877Z,952.74
2023-02-22T08:22:22.835Z,952.77
2023-02-22T08:23:22.801Z,952.77
2023-02-22T08:24:22.746Z,952.75
2023-02-22T08:25:22.729Z,952.69
2023-02-22T08:26:22.687Z,952.75
2023-02-22T08:27:22.655Z,952.71
2023-02-22T08:28:22.617Z,952.73
2023-02-22T08:29:22.568Z,952.74
2023-02-22T08:30:22.573Z,952.70
2023-02-22T08:31:22.529Z,952.75
2023-02-22T08:32:22.573Z,952.68
2023-02-22T08:33:22.553Z,952.67
2023-02-22T08:34:22.377Z,952.70
2023-02-22T08:35:22.353Z,952.68
2023-02-22T08:36:22.318Z,952.70
2023-02-22T08:37:22.283Z,952.66
2023-02-22T08:38:22.224Z,952.71
2023-02-22T08:39:22.192Z,952.68
2023-02-22T08:40:22.164Z,952.69
2023-02-22T08:41:22.115Z,952.71
2023-02-22T08:42:22.071Z,952.68
2023-02-22T08:43:22.053Z,952.70
2023-02-22T08:44:21.989Z,952.68
2023-02-22T08:45:21.969Z,952.69
2023-02-22T08:46:21.922Z,952.71
2023-02-22T08:47:21.879Z,952.68
2023-02-22T08:48:21.820Z,952.65
2023-02-22T08:49:21.802Z,952.64
2023-02-22T08:50:21.750Z,952.65
2023-02-22T08:51:21.736Z,952.61
2023-02-22T08:52:21.688Z,952.60
2023-02-22T08:53:21.684Z,952.62
2023-02-22T08:54:21.667Z,952.61
2023-02-22T08:55:21.574Z,952.61
2023-02-22T08:56:21.530Z,952.60
2023-02-22T08:57:21.916Z,952.63
2023-02-22T08:58:21.446Z,952.59
2023-02-22T08:59:21.404Z,952.67
2023-02-22T09:00:21.348Z,952.65
2023-02-22T09:01:31.496Z,952.64
2023-02-22T09:02:22.361Z,952.65
2023-02-22T09:03:21.265Z,952.63
2023-02-22T09:04:21.180Z,952.66
2023-02-22T09:05:21.140Z,952.58
2023-02-22T09:06:21.108Z,952.59
2023-02-22T09:07:21.050Z,952.57
2023-02-22T09:08:21.026Z,952.56
2023-02-22T09:09:20.979Z,952.56
2023-02-22T09:10:20.929Z,952.54
2023-02-22T09:11:20.892Z,952.59
2023-02-22T09:12:20.848Z,952.60
2023-02-22T09:13:20.804Z,952.55
2023-02-22T09:14:20.806Z,952.59
2023-02-22T09:15:20.719Z,952.60
2023-02-22T09:16:20.722Z,952.57
2023-02-22T09:17:20.642Z,952.60
2023-02-22T09:18:20.607Z,952.58
2023-02-22T09:19:20.536Z,952.59
2023-02-22T09:20:20.498Z,952.56
2023-02-22T09:21:20.449Z,952.56
2023-02-22T09:22:20.391Z,952.55
2023-02-22T09:23:21.610Z,952.54
2023-02-22T09:24:20.275Z,952.53
2023-02-22T09:25:20.225Z,952.54
2023-02-22T09:26:20.174Z,952.54
2023-02-22T09:27:20.130Z,952.47
2023-02-22T09:28:20.067Z,952.43
2023-02-22T09:29:20.048Z,952.44
2023-02-22T09:30:19.989Z,952.46
2023-02-22T09:31:20.484Z,952.46
2023-02-22T09:32:20.022Z,952.42
2023-02-22T09:33:19.833Z,952.45
2023-02-22T09:34:19.738Z,952.46
2023-02-22T09:35:19.686Z,952.48
2023-02-22T09:36:19.635Z,952.48
2023-02-22T09:37:19.572Z,952.41
2023-02-22T09:38:19.530Z,952.39
2023-02-22T09:39:19.472Z,952.36
2023-02-22T09:40:19.409Z,952.38
2023-02-22T09:41:19.349Z,952.40
2023-02-22T09:42:19.319Z,952.36
2023-02-22T09:43:19.248Z,952.35
2023-02-22T09:44:19.177Z,952.36
2023-02-22T09:45:19.117Z,952.39
2023-02-22T09:46:19.878Z,952.38
2023-02-22T09:47:19.016Z,952.36
2023-02-22T09:48:22.067Z,952.37
2023-02-22T09:49:18.870Z,952.36
2023-02-22T09:50:18.821Z,952.31
2023-02-22T09:51:18.741Z,952.33
2023-02-22T09:52:18.689Z,952.31
2023-02-22T09:53:18.622Z,952.29
2023-02-22T09:54:18.554Z,952.31
2023-02-22T09:55:18.487Z,952.23
2023-02-22T09:56:19.047Z,952.28
2023-02-22T09:57:18.354Z,952.25
2023-02-22T09:58:18.284Z,952.26
2023-02-22T09:59:18.235Z,952.23
2023-02-22T10:00:18.168Z,952.25
2023-02-22T10:01:18.089Z,952.19
2023-02-22T10:02:18.037Z,952.23
2023-02-22T10:03:19.453Z,952.18
2023-02-22T10:04:17.916Z,952.21
2023-02-22T10:05:17.890Z,952.19
2023-02-22T10:06:18.051Z,952.22
2023-02-22T10:07:17.718Z,952.16
2023-02-22T10:08:17.648Z,952.21
2023-02-22T10:09:17.588Z,952.17
2023-02-22T10:10:17.558Z,952.18
2023-02-22T10:11:17.450Z,952.19
2023-02-22T10:12:17.400Z,952.20
2023-02-22T10:13:17.309Z,952.16
2023-02-22T10:14:17.248Z,952.20
2023-02-22T10:15:17.162Z,952.19
2023-02-22T10:16:17.358Z,952.15
2023-02-22T10:17:17.032Z,952.14
2023-02-22T10:18:16.960Z,952.16
2023-02-22T10:19:16.902Z,952.12
2023-02-22T10:20:16.831Z,952.13
2023-02-22T10:21:16.754Z,952.14
2023-02-22T10:22:16.681Z,952.09
2023-02-22T10:23:16.632Z,952.07
2023-02-22T10:24:16.562Z,952.08
2023-02-22T10:25:16.473Z,952.09
2023-02-22T10:26:16.956Z,952.10
2023-02-22T10:27:16.327Z,952.06
2023-02-22T10:28:16.239Z,952.03
2023-02-22T10:29:16.162Z,952.07
2023-02-22T10:30:24.570Z,952.08
2023-02-22T10:31:17.076Z,952.08
2023-02-22T10:32:16.076Z,952.08
2023-02-22T10:33:15.842Z,952.03
2023-02-22T10:34:15.760Z,952.04
2023-02-22T10:35:15.679Z,952.02
2023-02-22T10:36:15.901Z,952.04
2023-02-22T10:37:15.544Z,952.00
2023-02-22T10:38:15.451Z,951.99
2023-02-22T10:39:15.413Z,951.99
2023-02-22T10:40:15.304Z,951.98
2023-02-22T10:41:17.296Z,952.00
2023-02-22T10:42:15.125Z,951.92
2023-02-22T10:43:15.043Z,951.90
2023-02-22T10:44:14.959Z,951.96
2023-02-22T10:45:14.889Z,951.92
2023-02-22T10:46:15.033Z,951.91
2023-02-22T10:47:16.592Z,951.89
2023-02-22T10:48:14.627Z,951.87
2023-02-22T10:49:14.545Z,951.93
2023-02-22T10:50:14.488Z,951.91
2023-02-22T10:51:14.391Z,951.94
2023-02-22T10:52:14.312Z,951.96
2023-02-22T10:53:14.237Z,951.96
2023-02-22T10:54:14.148Z,951.91
2023-02-22T10:55:15.609Z,951.94
2023-02-22T10:56:13.987Z,951.90
2023-02-22T10:57:13.904Z,951.93
2023-02-22T10:58:13.799Z,951.92
2023-02-22T10:59:13.730Z,951.89
2023-02-22T11:00:13.640Z,951.89
2023-02-22T11:01:13.566Z,951.91
2023-02-22T11:02:13.477Z,951.91
2023-02-22T11:03:13.372Z,951.92
2023-02-22T11:04:13.290Z,951.93
2023-02-22T11:05:13.260Z,951.94
2023-02-22T11:06:13.112Z,951.91
2023-02-22T11:07:13.021Z,951.91
2023-02-22T11:08:12.942Z,951.87
2023-02-22T11:09:12.863Z,951.86
2023-02-22T11:10:12.773Z,951.88
2023-02-22T11:11:12.672Z,951.90
2023-02-22T11:12:12.595Z,951.85
2023-02-22T11:13:12.482Z,951.89
2023-02-22T11:14:12.405Z,951.83
2023-02-22T11:15:12.340Z,951.86
2023-02-22T11:16:12.219Z,951.80
2023-02-22T11:17:12.117Z,951.79
2023-02-22T11:18:12.033Z,951.79
2023-02-22T11:19:11.944Z,951.85
2023-02-22T11:20:11.853Z,951.76
2023-02-22T11:21:11.752Z,951.73
2023-02-22T11:22:11.684Z,951.75
2023-02-22T11:23:11.564Z,951.76
2023-02-22T11:24:11.475Z,951.70
2023-02-22T11:25:11.386Z,951.75
2023-02-22T11:26:11.285Z,951.68
2023-02-22T11:27:11.185Z,951.76
2023-02-22T11:28:11.101Z,951.74
2023-02-22T11:29:10.990Z,951.71
2023-02-22T11:30:10.934Z,951.63
2023-02-22T11:31:10.852Z,951.63
2023-02-22T11:32:10.770Z,951.63
2023-02-22T11:33:10.615Z,951.65
2023-02-22T11:34:10.507Z,951.63
2023-02-22T11:35:10.416Z,951.61
2023-02-22T11:36:10.319Z,951.60
2023-02-22T11:37:10.206Z,951.56
2023-02-22T11:38:10.125Z,951.60
2023-02-22T11:39:10.138Z,951.55
2023-02-22T11:40:09.935Z,951.50
2023-02-22T11:41:09.826Z,951.45
2023-02-22T11:42:09.718Z,951.48
2023-02-22T11:43:09.641Z,951.41
2023-02-22T11:44:09.527Z,951.43
2023-02-22T11:45:09.432Z,951.42
2023-02-22T11:46:09.373Z,951.42
2023-02-22T11:47:09.228Z,951.43
2023-02-22T11:48:09.159Z,951.39
2023-02-22T11:49:09.052Z,951.38
2023-02-22T11:50:08.958Z,951.36
2023-02-22T11:51:08.859Z,951.37
2023-02-22T11:52:08.757Z,951.32
2023-02-22T11:53:08.650Z,951.40
2023-02-22T11:54:08.565Z,951.38
2023-02-22T11:55:08.459Z,951.41
2023-02-22T11:56:08.362Z,951.38
2023-02-22T11:57:08.251Z,951.32
2023-02-22T11:58:08.154Z,951.37
2023-02-22T11:59:08.060Z,951.32
2023-02-22T12:00:07.968Z,951.30
2023-02-22T12:01:07.990Z,951.34
2023-02-22T12:02:07.772Z,951.32
2023-02-22T12:03:07.672Z,951.31
2023-02-22T12:04:07.637Z,951.29
2023-02-22T12:05:07.502Z,951.28
2023-02-22T12:06:07.383Z,951.27
2023-02-22T12:07:07.276Z,951.28
2023-02-22T12:08:18.925Z,951.25
2023-02-22T12:09:08.084Z,951.23
2023-02-22T12:10:06.991Z,951.25
2023-02-22T12:11:06.909Z,951.25
2023-02-22T12:12:06.780Z,951.27
2023-02-22T12:13:06.681Z,951.24
2023-02-22T12:14:06.591Z,951.22
2023-02-22T12:15:06.491Z,951.26
2023-02-22T12:16:06.442Z,951.27
2023-02-22T12:17:06.306Z,951.22
2023-02-22T12:18:06.187Z,951.22
2023-02-22T12:19:06.098Z,951.21
2023-02-22T12:20:06.024Z,951.20
2023-02-22T12:21:05.929Z,951.19
2023-02-22T12:22:05.836Z,951.22
2023-02-22T12:23:05.725Z,951.20
2023-02-22T12:24:05.662Z,951.14
2023-02-22T12:25:09.987Z,951.10
2023-02-22T12:26:05.464Z,951.10
2023-02-22T12:27:06.648Z,951.08
2023-02-22T12:28:10.054Z,951.10